Airfield :
LOGIN :

Register | Disclaimer

   EN    FR    IT 

 










Legend :    VFR   Marginal VFR   IFR   Intensive IFR   Very Intensive IFR
Visi :
Ceiling :
>= 8 km
>= 3000ft
5 to 8 km
1000 to 3000 ft
1500m to 5 km
500 to 1000 ft
800 to 1500m
200 to 500 ft
< 800m
< 200 ft
Symbols :   Thunderstorms  Fog  Heavy snow  Heavy precipitations  Wind > 20 kt
SIGMETs :     Misc.  Thunderstorms  Icing  Turbulence  Mountain Waves  Volcanic Ashes







- Airport Elevation : 46 ft
- IATA code : SNN


EINN - Shannon

CURRENT METAR :
  • 222000Z 28009KT 9999 FEW012 BKN060 20/16 Q1016 NOSIG

EXPIRED METARs :
  • 221930Z 29010KT 9999 FEW014 BKN060 21/17 Q1016 NOSIG
  • 221900Z 26011KT 9999 FEW016 BKN060 21/17 Q1016 NOSIG
  • 221830Z 26011KT 9999 FEW017 BKN060 22/16 Q1016 NOSIG
  • 221800Z 26012KT 9999 FEW018 BKN060 22/17 Q1016 NOSIG
  • 221730Z 24008KT 9999 FEW024 BKN050 22/17 Q1016 NOSIG

TAF TAF EINN
Valid from the 22 at 18:00 until the 23 at 18:00 UTC


221700Z 2218/2318 26008KT 9999 SCT020 BKN040
BECMG 2223/2302 3000 -RADZ OVC004
BECMG 2311/2313 9999 BKN020
No reported NOTAMs for that airfield.



MET'MAP, your aeronautical weather chart ! - Copyright ORBIFLY December 2007 - Disclaimer

ORBIFLY MET'MAP TEAM :

Programming & Development : Alexandra Zaïnal
Concept & Development : Baudouin d'Aumeries
Co-Development & Prog : Marc-Olivier Méhu
Technical & hardware support : Manuel Goepfert

Contact : metmap@orbifly.com




SOURCES & CREDITS :

   NOAA